Time;durP1;ratioP1;P1;durP2;ratioP2;P2;SDS_P1;SDS_P2;PMS_P1;PMS_P2;Temp;Humidity;BMP_temperature;BMP_pressure;BME280_temperature;BME280_humidity;BME280_pressure;Samples;Min_cycle;Max_cycle;Signal;HPM_P1;HPM_P2
2021/12/02 00:01:32;;;;;;;4.55;3.13;;;21.90;54.00;;;;;;5036266;28;20045;-70
2021/12/02 00:03:59;;;;;;;5.05;2.80;;;22.00;54.00;;;;;;5035775;28;20379;-70
2021/12/02 00:06:26;;;;;;;4.63;2.75;;;21.90;54.20;;;;;;5036336;28;20109;-70
2021/12/02 00:08:52;;;;;;;4.05;2.92;;;22.00;54.00;;;;;;5036179;28;20080;-70
2021/12/02 00:11:20;;;;;;;4.18;3.08;;;22.10;54.10;;;;;;5036153;28;20045;-70
2021/12/02 00:16:27;;;;;;;4.45;3.28;;;22.10;53.90;;;;;;5035352;28;20052;-70
2021/12/02 00:21:45;;;;;;;2.55;2.35;;;22.20;53.60;;;;;;5036197;28;20068;-70
2021/12/02 00:24:18;;;;;;;3.50;2.78;;;22.20;53.60;;;;;;5034840;28;20101;-71
2021/12/02 00:26:46;;;;;;;5.53;2.35;;;22.30;53.50;;;;;;5035907;28;20034;-70
2021/12/02 00:29:16;;;;;;;3.38;2.45;;;22.30;53.60;;;;;;5035344;28;20050;-71
2021/12/02 00:31:44;;;;;;;3.10;2.35;;;22.30;53.50;;;;;;5036097;28;20045;-71
2021/12/02 00:34:12;;;;;;;5.47;2.58;;;22.30;53.30;;;;;;5035974;28;20057;-71
2021/12/02 00:36:39;;;;;;;5.05;2.70;;;22.30;53.20;;;;;;5035983;28;20193;-70
2021/12/02 00:39:15;;;;;;;4.78;2.60;;;22.40;53.30;;;;;;5038454;28;20065;-71
2021/12/02 00:41:41;;;;;;;4.15;2.70;;;22.30;53.40;;;;;;5075751;28;20053;-70
2021/12/02 00:44:11;;;;;;;7.43;3.20;;;22.20;53.40;;;;;;5075588;28;20036;-71
2021/12/02 00:46:37;;;;;;;3.33;2.75;;;22.10;53.50;;;;;;5075422;28;20064;-70
2021/12/02 00:49:07;;;;;;;3.28;2.15;;;22.10;53.50;;;;;;5075200;28;20061;-70
2021/12/02 00:51:35;;;;;;;5.38;3.03;;;22.10;53.50;;;;;;5075651;28;20051;-70
2021/12/02 00:54:07;;;;;;;4.78;2.88;;;22.20;53.40;;;;;;5075157;28;20041;-70
2021/12/02 00:56:34;;;;;;;5.07;2.60;;;22.10;53.50;;;;;;5058464;28;20089;-70
2021/12/02 00:59:00;;;;;;;3.28;2.75;;;22.10;53.40;;;;;;5074979;28;20037;-70
2021/12/02 01:01:36;;;;;;;5.25;3.05;;;22.10;53.40;;;;;;5075272;28;20051;-70
2021/12/02 01:04:10;;;;;;;5.63;2.88;;;22.00;53.30;;;;;;5075399;28;20093;-71
2021/12/02 01:06:38;;;;;;;4.25;2.58;;;22.00;53.30;;;;;;5075317;28;20041;-70
2021/12/02 01:09:06;;;;;;;6.85;2.78;;;22.10;53.30;;;;;;5075402;28;20045;-70
2021/12/02 01:11:32;;;;;;;5.95;2.80;;;22.10;53.30;;;;;;5079108;28;20044;-71
2021/12/02 01:13:59;;;;;;;4.60;2.78;;;22.10;52.90;;;;;;5078765;28;20061;-71
2021/12/02 01:16:25;;;;;;;4.97;2.65;;;22.20;53.30;;;;;;5078954;28;20055;-70
2021/12/02 01:18:52;;;;;;;3.78;2.70;;;22.00;53.10;;;;;;5078918;28;20079;-70
2021/12/02 01:21:21;;;;;;;3.05;2.33;;;22.10;53.40;;;;;;5078730;28;20051;-71
2021/12/02 01:24:02;;;;;;;4.10;2.53;;;22.10;53.30;;;;;;5078937;28;20052;-70
2021/12/02 01:26:30;;;;;;;4.72;2.30;;;22.00;53.10;;;;;;5078940;28;20029;-70
2021/12/02 01:28:56;;;;;;;4.00;2.97;;;22.10;53.40;;;;;;5061075;28;20033;-70
2021/12/02 01:31:23;;;;;;;4.40;2.55;;;22.10;53.40;;;;;;5078739;28;20067;-70
2021/12/02 01:33:51;;;;;;;3.92;2.33;;;22.20;53.30;;;;;;5078744;28;20045;-72
2021/12/02 01:36:19;;;;;;;3.85;2.78;;;22.20;53.30;;;;;;5078606;28;20056;-70
2021/12/02 01:38:45;;;;;;;5.82;3.50;;;22.10;53.20;;;;;;5078496;28;20175;-71
2021/12/02 01:41:11;;;;;;;3.53;2.45;;;22.10;53.20;;;;;;5078325;28;20052;-70
2021/12/02 01:43:37;;;;;;;3.40;2.42;;;22.10;53.20;;;;;;5078039;28;20071;-71
2021/12/02 01:46:04;;;;;;;3.38;2.70;;;22.10;53.20;;;;;;5078258;28;20073;-70
2021/12/02 01:48:31;;;;;;;4.15;2.67;;;22.10;52.50;;;;;;5078404;28;20041;-70
2021/12/02 01:51:00;;;;;;;4.25;2.97;;;22.20;53.10;;;;;;5078103;28;20093;-70
2021/12/02 01:53:32;;;;;;;3.17;2.70;;;22.10;53.00;;;;;;5078256;28;20110;-70
2021/12/02 01:56:19;;;;;;;3.10;2.10;;;22.20;52.80;;;;;;5068274;28;20045;-70
2021/12/02 01:58:50;;;;;;;3.63;3.00;;;22.20;53.00;;;;;;5057996;28;20072;-71
2021/12/02 02:01:25;;;;;;;2.60;2.25;;;22.20;52.90;;;;;;5058165;28;20045;-70
2021/12/02 02:03:54;;;;;;;3.58;2.63;;;22.20;52.90;;;;;;5058029;28;20041;-70
2021/12/02 02:06:28;;;;;;;2.28;2.08;;;22.10;52.00;;;;;;5058202;28;20053;-70
2021/12/02 02:08:59;;;;;;;3.13;2.58;;;22.10;52.80;;;;;;5057953;28;20041;-70
2021/12/02 02:11:30;;;;;;;4.32;2.80;;;22.00;52.80;;;;;;5057964;28;20049;-70
2021/12/02 02:13:59;;;;;;;4.93;3.50;;;22.00;52.90;;;;;;5057976;28;20110;-70
2021/12/02 02:16:27;;;;;;;4.10;3.05;;;22.00;52.90;;;;;;5057934;28;20037;-71
2021/12/02 02:18:53;;;;;;;5.55;2.70;;;21.90;52.90;;;;;;5057488;28;20045;-70
2021/12/02 02:21:22;;;;;;;6.00;3.10;;;21.90;53.10;;;;;;5056873;28;20120;-70
2021/12/02 02:23:58;;;;;;;4.15;2.65;;;22.00;53.00;;;;;;5057836;28;20038;-71
2021/12/02 02:26:36;;;;;;;6.00;3.53;;;22.10;53.00;;;;;;5057715;28;20041;-70
2021/12/02 02:29:04;;;;;;;4.20;2.58;;;22.00;52.80;;;;;;5057571;28;20061;-70
2021/12/02 02:31:33;;;;;;;5.45;3.28;;;22.20;52.90;;;;;;5057247;28;20046;-70
2021/12/02 02:33:59;;;;;;;5.82;2.97;;;22.20;52.80;;;;;;5057404;28;20056;-71
2021/12/02 02:36:33;;;;;;;5.20;3.17;;;22.00;52.80;;;;;;5057595;28;20088;-70
2021/12/02 02:39:02;;;;;;;3.70;2.53;;;21.90;52.80;;;;;;5056813;28;20053;-70
2021/12/02 02:41:36;;;;;;;6.10;2.85;;;22.00;52.90;;;;;;5055665;28;20045;-69
2021/12/02 02:44:05;;;;;;;5.35;3.00;;;21.90;52.80;;;;;;5057179;28;20045;-69
2021/12/02 02:46:34;;;;;;;4.22;2.70;;;21.90;53.00;;;;;;5073269;28;20080;-69
2021/12/02 02:49:03;;;;;;;2.85;2.30;;;21.90;52.80;;;;;;5057258;28;20118;-69
2021/12/02 02:51:31;;;;;;;5.38;2.33;;;21.90;52.80;;;;;;5057301;28;20056;-69
2021/12/02 02:54:03;;;;;;;3.40;2.20;;;21.90;52.90;;;;;;5057043;28;20049;-69
2021/12/02 02:56:31;;;;;;;3.47;2.55;;;21.90;52.80;;;;;;5057085;28;20049;-69
2021/12/02 03:02:34;;;;;;;3.35;2.33;;;22.00;52.60;;;;;;5056917;28;20053;-68
2021/12/02 03:12:38;;;;;;;3.80;2.42;;;22.00;52.50;;;;;;5056946;28;20045;-69
2021/12/02 03:17:32;;;;;;;4.43;2.50;;;22.10;52.50;;;;;;5056612;28;20045;-69
2021/12/02 03:19:59;;;;;;;3.78;2.60;;;22.10;52.50;;;;;;5056563;28;20136;-69
2021/12/02 03:22:25;;;;;;;2.38;2.00;;;22.10;52.40;;;;;;5056488;28;20453;-69
2021/12/02 03:24:52;;;;;;;2.58;2.08;;;22.10;52.50;;;;;;5056366;28;20041;-69
2021/12/02 03:27:18;;;;;;;5.13;2.45;;;22.20;52.30;;;;;;5056360;28;20045;-70
2021/12/02 03:29:44;;;;;;;3.13;2.33;;;22.10;52.40;;;;;;5056591;28;20045;-69
2021/12/02 03:32:10;;;;;;;4.07;2.30;;;22.10;52.30;;;;;;5056450;28;20034;-69
2021/12/02 03:34:39;;;;;;;4.70;2.78;;;22.10;52.40;;;;;;5056342;28;20061;-69
2021/12/02 03:37:05;;;;;;;3.83;2.35;;;22.00;52.30;;;;;;5056417;28;20045;-69
2021/12/02 03:39:31;;;;;;;4.60;2.95;;;22.00;52.40;;;;;;5056278;28;20042;-69
2021/12/02 03:41:58;;;;;;;3.08;2.50;;;22.00;52.40;;;;;;5056177;28;20152;-69
2021/12/02 03:44:25;;;;;;;3.10;2.25;;;22.00;52.40;;;;;;5056296;28;20045;-70
2021/12/02 03:46:52;;;;;;;6.60;2.75;;;22.00;52.50;;;;;;5056182;28;20052;-69
2021/12/02 03:49:19;;;;;;;3.60;2.55;;;22.00;52.50;;;;;;5056202;28;20052;-69
2021/12/02 03:51:46;;;;;;;2.75;2.28;;;21.80;52.30;;;;;;5056110;28;20084;-69
2021/12/02 03:54:13;;;;;;;4.82;2.50;;;21.90;52.40;;;;;;5056267;28;20124;-69
2021/12/02 03:56:40;;;;;;;3.75;2.47;;;22.00;52.30;;;;;;5055928;28;20053;-69
2021/12/02 03:59:06;;;;;;;5.03;2.30;;;21.90;52.30;;;;;;5055584;28;20046;-69
2021/12/02 04:01:32;;;;;;;2.20;1.95;;;21.90;52.30;;;;;;5055994;28;20045;-69
2021/12/02 04:03:59;;;;;;;2.80;1.80;;;21.90;52.30;;;;;;5055850;28;20075;-69
2021/12/02 04:06:25;;;;;;;3.63;2.40;;;21.90;52.20;;;;;;5055838;28;20045;-69
2021/12/02 04:09:14;;;;;;;5.88;2.42;;;21.90;52.30;;;;;;5038774;28;20076;-69
2021/12/02 04:14:21;;;;;;;3.42;2.60;;;21.90;52.20;;;;;;5055952;28;20061;-69
2021/12/02 04:17:01;;;;;;;;;;;22.00;52.00;;;;;;5056161;28;20041;-69
2021/12/02 04:19:27;;;;;;;3.20;2.50;;;22.00;52.10;;;;;;5056043;28;19916;-69
2021/12/02 04:21:58;;;;;;;5.82;3.00;;;22.00;51.90;;;;;;5055724;28;20064;-69
2021/12/02 04:24:25;;;;;;;4.93;3.20;;;22.00;52.00;;;;;;5055736;28;20046;-69
2021/12/02 04:26:52;;;;;;;5.38;3.47;;;22.10;52.00;;;;;;5055732;28;20041;-69
2021/12/02 04:29:18;;;;;;;5.13;3.15;;;22.00;52.00;;;;;;5038728;28;20067;-69
2021/12/02 04:31:45;;;;;;;6.78;2.70;;;22.10;52.20;;;;;;5055638;28;20049;-69
2021/12/02 04:34:13;;;;;;;4.60;2.75;;;22.00;52.10;;;;;;5055491;28;20046;-69
2021/12/02 04:36:39;;;;;;;4.47;2.67;;;22.10;51.70;;;;;;5038366;28;20105;-69
2021/12/02 04:39:06;;;;;;;5.15;3.63;;;22.20;51.90;;;;;;5055409;28;20048;-69
2021/12/02 04:41:33;;;;;;;5.68;3.45;;;22.30;51.90;;;;;;5055729;28;20056;-69
2021/12/02 04:43:59;;;;;;;4.90;3.13;;;22.40;51.70;;;;;;5055781;28;20050;-70
2021/12/02 04:46:25;;;;;;;4.85;3.05;;;22.30;51.80;;;;;;5059436;28;20044;-69
2021/12/02 04:48:51;;;;;;;3.40;2.38;;;22.30;52.00;;;;;;5059527;28;20065;-69
2021/12/02 04:51:17;;;;;;;6.13;4.03;;;22.20;51.90;;;;;;5058875;28;20041;-69
2021/12/02 04:53:44;;;;;;;8.10;4.07;;;22.20;52.10;;;;;;5059419;28;20037;-69
2021/12/02 04:56:10;;;;;;;7.03;4.32;;;22.10;52.20;;;;;;5059286;28;20065;-69
2021/12/02 04:58:36;;;;;;;7.30;3.97;;;22.10;52.30;;;;;;5059298;28;20049;-69
2021/12/02 05:01:02;;;;;;;5.18;3.42;;;22.00;52.40;;;;;;5059387;28;20045;-69
2021/12/02 05:03:28;;;;;;;6.47;3.22;;;22.00;52.50;;;;;;5059062;28;20060;-69
2021/12/02 05:05:55;;;;;;;5.32;3.25;;;22.00;54.30;;;;;;5058789;28;20037;-70
2021/12/02 05:08:21;;;;;;;7.13;3.17;;;22.30;56.70;;;;;;5059107;28;20057;-69
2021/12/02 05:10:47;;;;;;;5.43;3.13;;;22.60;58.20;;;;;;5059062;28;20063;-70
2021/12/02 05:13:13;;;;;;;5.93;3.40;;;22.80;58.10;;;;;;5058959;28;20038;-70
2021/12/02 05:15:39;;;;;;;4.43;3.10;;;23.00;63.30;;;;;;5058828;28;20092;-70
2021/12/02 05:18:07;;;;;;;4.55;2.80;;;23.00;55.80;;;;;;5058972;28;20037;-69
2021/12/02 05:20:33;;;;;;;4.50;2.75;;;22.90;54.10;;;;;;5058833;28;20056;-70
2021/12/02 05:22:59;;;;;;;6.28;2.78;;;22.70;53.80;;;;;;5058895;28;20049;-69
2021/12/02 05:25:25;;;;;;;4.05;3.22;;;22.60;54.10;;;;;;5058173;28;20097;-71
2021/12/02 05:27:51;;;;;;;5.32;3.35;;;22.50;54.50;;;;;;5058539;28;20041;-71
2021/12/02 05:30:17;;;;;;;8.63;4.05;;;22.60;55.30;;;;;;5058713;28;20068;-71
2021/12/02 05:32:43;;;;;;;7.78;4.15;;;22.50;55.50;;;;;;5058743;28;20041;-70
2021/12/02 05:35:10;;;;;;;8.93;4.07;;;22.50;55.60;;;;;;5058389;28;20133;-71
2021/12/02 05:37:36;;;;;;;4.95;3.03;;;22.40;55.70;;;;;;5058569;28;20067;-70
2021/12/02 05:40:04;;;;;;;4.88;3.28;;;22.40;55.80;;;;;;5058260;28;20129;-70
2021/12/02 05:42:30;;;;;;;5.10;3.17;;;22.40;55.70;;;;;;5058408;28;20056;-69
2021/12/02 05:44:57;;;;;;;6.35;2.85;;;22.50;55.80;;;;;;5058499;28;20041;-70
2021/12/02 05:47:23;;;;;;;6.93;3.30;;;22.50;56.10;;;;;;5058225;28;20045;-69
2021/12/02 05:49:49;;;;;;;7.20;2.95;;;22.50;56.10;;;;;;5058267;28;20049;-69
2021/12/02 05:52:15;;;;;;;6.90;3.38;;;22.60;55.80;;;;;;5058206;28;20049;-70
2021/12/02 05:54:41;;;;;;;10.55;5.00;;;22.50;55.70;;;;;;5058205;28;20033;-71
2021/12/02 05:57:08;;;;;;;12.25;5.80;;;22.60;55.70;;;;;;5056866;28;20101;-70
2021/12/02 05:59:34;;;;;;;3.20;2.17;;;22.40;55.80;;;;;;5051490;28;20038;-72
2021/12/02 06:01:59;;;;;;;2.97;2.20;;;22.50;48.00;;;;;;5038142;28;20054;-72
2021/12/02 06:04:26;;;;;;;6.45;2.90;;;22.60;46.70;;;;;;5038152;28;20045;-71
2021/12/02 06:06:52;;;;;;;5.43;2.50;;;22.60;45.50;;;;;;5038060;28;20038;-71
2021/12/02 06:09:19;;;;;;;5.50;2.65;;;22.60;45.70;;;;;;5072453;28;20049;-72
2021/12/02 06:11:46;;;;;;;5.78;2.92;;;22.80;46.60;;;;;;5040653;28;20129;-72
2021/12/02 06:14:14;;;;;;;6.88;4.47;;;22.90;47.40;;;;;;5043827;28;20105;-72
2021/12/02 06:16:41;;;;;;;8.52;2.92;;;23.00;45.10;;;;;;5047056;28;20057;-71
2021/12/02 06:19:07;;;;;;;4.38;3.50;;;23.00;44.70;;;;;;5048574;28;20049;-72
2021/12/02 06:21:33;;;;;;;4.65;3.03;;;23.00;43.50;;;;;;5046690;28;20049;-72
2021/12/02 06:24:02;;;;;;;6.10;3.28;;;23.00;43.20;;;;;;5048877;28;20034;-70
2021/12/02 06:26:28;;;;;;;5.75;3.45;;;23.10;43.90;;;;;;5044715;28;20089;-71
2021/12/02 06:28:54;;;;;;;4.97;3.85;;;23.10;42.90;;;;;;5047912;28;20041;-71
2021/12/02 06:31:21;;;;;;;6.07;3.33;;;23.10;42.30;;;;;;5049703;28;20056;-71
2021/12/02 06:33:47;;;;;;;3.97;2.60;;;23.10;40.50;;;;;;5047978;28;20049;-70
2021/12/02 06:36:13;;;;;;;4.95;3.17;;;23.10;42.20;;;;;;5048041;28;20049;-70
2021/12/02 06:38:41;;;;;;;3.05;2.38;;;23.00;41.60;;;;;;5077278;28;20113;-71
2021/12/02 06:41:07;;;;;;;8.57;5.18;;;23.00;42.10;;;;;;5061592;28;20171;-70
2021/12/02 06:43:34;;;;;;;11.88;5.55;;;23.20;53.40;;;;;;5074194;28;20116;-71
2021/12/02 06:46:00;;;;;;;10.60;6.03;;;23.20;54.90;;;;;;5077306;28;20049;-69
2021/12/02 06:48:26;;;;;;;7.38;5.53;;;23.20;57.60;;;;;;5077305;28;20048;-70
2021/12/02 06:50:52;;;;;;;9.90;6.63;;;23.10;55.60;;;;;;5077132;28;20052;-74
2021/12/02 06:53:19;;;;;;;13.55;6.00;;;23.00;55.30;;;;;;5077283;28;20049;-72
2021/12/02 06:55:45;;;;;;;12.38;6.30;;;22.90;55.40;;;;;;5077079;28;20049;-71
2021/12/02 06:58:11;;;;;;;16.23;7.72;;;23.00;55.90;;;;;;5076950;28;20060;-72
2021/12/02 07:00:38;;;;;;;11.80;6.82;;;22.90;56.40;;;;;;5058771;28;20045;-72
2021/12/02 07:03:04;;;;;;;18.73;7.45;;;22.80;56.40;;;;;;5089419;28;20100;-74
2021/12/02 07:05:32;;;;;;;17.95;6.72;;;22.80;56.80;;;;;;5056778;28;20041;-72
2021/12/02 07:08:00;;;;;;;13.70;5.80;;;22.70;56.80;;;;;;5056182;28;20042;-73
2021/12/02 07:10:28;;;;;;;12.07;6.78;;;22.70;57.10;;;;;;5056853;28;20025;-71
2021/12/02 07:12:56;;;;;;;9.73;5.18;;;22.50;57.40;;;;;;5056741;28;20088;-71
2021/12/02 07:15:30;;;;;;;10.55;6.40;;;22.60;57.70;;;;;;5056653;28;20087;-70
2021/12/02 07:17:58;;;;;;;10.75;6.25;;;22.60;57.50;;;;;;5056510;28;20228;-71
2021/12/02 07:20:33;;;;;;;10.68;5.47;;;22.70;57.50;;;;;;5056187;28;20075;-69
2021/12/02 07:23:00;;;;;;;11.05;5.57;;;22.70;57.30;;;;;;5056648;28;20048;-70
2021/12/02 07:25:28;;;;;;;13.90;5.43;;;22.60;57.40;;;;;;5056500;28;20041;-70
2021/12/02 07:27:54;;;;;;;8.82;5.22;;;22.70;57.70;;;;;;5039046;28;20041;-70
2021/12/02 07:30:20;;;;;;;11.50;5.10;;;22.60;57.80;;;;;;5056536;28;20045;-70
2021/12/02 07:32:51;;;;;;;12.73;6.30;;;22.60;57.80;;;;;;5072180;28;20040;-69
2021/12/02 07:35:19;;;;;;;11.23;6.75;;;22.70;57.80;;;;;;5054695;28;20125;-70
2021/12/02 07:37:50;;;;;;;14.57;7.28;;;22.50;57.80;;;;;;5052083;28;20041;-71
2021/12/02 07:40:17;;;;;;;11.38;7.13;;;22.60;57.70;;;;;;5035997;28;20046;-70
2021/12/02 07:42:48;;;;;;;11.68;7.03;;;22.70;57.60;;;;;;5036242;28;20038;-70
2021/12/02 07:45:16;;;;;;;13.80;7.72;;;22.70;57.50;;;;;;5036488;28;20055;-70
2021/12/02 07:47:42;;;;;;;8.98;5.22;;;22.60;57.50;;;;;;5037001;28;20042;-70
2021/12/02 07:50:11;;;;;;;7.63;4.72;;;22.70;57.50;;;;;;5055711;28;20033;-70
2021/12/02 07:52:46;;;;;;;13.32;6.13;;;22.90;57.10;;;;;;5055675;28;20389;-70
2021/12/02 07:55:14;;;;;;;15.82;6.50;;;23.00;56.50;;;;;;5055763;28;20068;-70
2021/12/02 07:57:43;;;;;;;11.23;6.05;;;23.00;56.40;;;;;;5055765;28;20045;-70
2021/12/02 08:00:11;;;;;;;10.75;6.03;;;23.10;56.20;;;;;;5055918;28;20047;-70
2021/12/02 08:02:42;;;;;;;11.30;6.40;;;23.10;55.60;;;;;;5055338;28;20538;-70
2021/12/02 08:05:09;;;;;;;9.25;5.32;;;23.10;56.10;;;;;;5055785;28;20045;-70
2021/12/02 08:07:38;;;;;;;12.13;5.85;;;23.20;55.80;;;;;;5055562;28;20038;-70
2021/12/02 08:10:09;;;;;;;9.75;4.70;;;23.30;55.40;;;;;;5055578;28;20052;-70
2021/12/02 08:12:35;;;;;;;12.25;4.47;;;23.30;55.00;;;;;;5055910;28;20104;-70
2021/12/02 08:15:07;;;;;;;7.15;4.30;;;23.20;54.70;;;;;;5054705;28;20095;-70
2021/12/02 08:17:34;;;;;;;8.10;4.65;;;23.20;54.50;;;;;;5055433;28;20113;-70
2021/12/02 08:20:00;;;;;;;7.75;4.50;;;23.20;54.40;;;;;;5057525;28;20041;-70
2021/12/02 08:22:26;;;;;;;10.75;4.43;;;23.20;54.20;;;;;;5059408;28;20045;-70
2021/12/02 08:24:53;;;;;;;11.52;5.22;;;23.30;54.20;;;;;;5059365;28;20064;-71
2021/12/02 08:27:19;;;;;;;8.32;3.85;;;23.20;53.90;;;;;;5058899;28;20041;-71
2021/12/02 08:29:45;;;;;;;11.85;5.70;;;23.20;53.40;;;;;;5058680;28;20034;-72
2021/12/02 08:32:11;;;;;;;9.55;4.63;;;23.30;51.40;;;;;;5059329;28;20045;-71
2021/12/02 08:34:39;;;;;;;11.40;4.75;;;23.30;49.50;;;;;;5059679;28;20045;-72
2021/12/02 08:37:07;;;;;;;8.85;4.55;;;23.20;47.50;;;;;;5058844;28;20033;-71
2021/12/02 08:39:34;;;;;;;9.60;4.18;;;23.30;46.40;;;;;;5058745;28;20049;-71
2021/12/02 08:42:02;;;;;;;7.60;4.88;;;23.20;44.90;;;;;;5057838;28;20045;-70
2021/12/02 08:44:31;;;;;;;8.68;4.53;;;23.20;44.10;;;;;;5058157;28;20048;-72
2021/12/02 08:46:57;;;;;;;11.90;5.35;;;23.20;43.30;;;;;;5058380;28;20037;-72
2021/12/02 08:49:23;;;;;;;9.57;4.90;;;23.20;42.70;;;;;;5058625;28;20038;-71
2021/12/02 08:51:51;;;;;;;12.88;5.03;;;23.10;42.60;;;;;;5058763;28;20048;-72
2021/12/02 08:54:19;;;;;;;9.38;5.28;;;23.10;43.00;;;;;;5058854;28;20045;-70
2021/12/02 08:56:45;;;;;;;16.65;5.55;;;23.20;42.90;;;;;;5058342;28;20052;-72
2021/12/02 08:59:11;;;;;;;13.38;5.60;;;23.20;41.20;;;;;;5058612;28;20053;-72
2021/12/02 09:01:37;;;;;;;11.95;5.15;;;23.10;41.50;;;;;;5059043;28;20075;-72
2021/12/02 09:04:04;;;;;;;5.13;2.72;;;23.10;41.50;;;;;;5058771;28;20040;-71
2021/12/02 09:06:31;;;;;;;7.45;3.47;;;23.10;40.80;;;;;;5058833;28;20041;-75
2021/12/02 09:08:59;;;;;;;8.70;3.33;;;23.20;40.10;;;;;;5059016;28;20105;-73
2021/12/02 09:11:30;;;;;;;6.78;2.17;;;23.20;39.70;;;;;;5058651;28;20478;-74
2021/12/02 09:13:58;;;;;;;3.50;2.38;;;23.20;39.60;;;;;;5058687;28;20041;-75
2021/12/02 09:16:29;;;;;;;4.15;3.20;;;23.20;39.10;;;;;;5058836;28;20045;-66
2021/12/02 09:18:56;;;;;;;1.45;1.35;;;23.20;39.50;;;;;;5058845;28;20075;-68
2021/12/02 09:21:24;;;;;;;3.08;1.63;;;23.20;38.90;;;;;;5058792;28;20048;-75
2021/12/02 09:23:52;;;;;;;4.53;2.10;;;23.20;38.60;;;;;;5058826;28;20045;-75
2021/12/02 09:26:19;;;;;;;2.40;1.38;;;23.20;37.40;;;;;;5058734;28;20045;-77
2021/12/02 09:28:52;;;;;;;2.63;1.50;;;23.10;38.20;;;;;;5058702;28;20033;-74
2021/12/02 09:31:19;;;;;;;5.35;2.45;;;23.20;37.40;;;;;;5058300;28;20037;-68
2021/12/02 09:33:45;;;;;;;2.88;1.58;;;23.20;38.30;;;;;;5058351;28;20057;-68
2021/12/02 09:36:12;;;;;;;5.63;2.28;;;23.20;38.90;;;;;;5058317;28;20049;-69
2021/12/02 09:38:38;;;;;;;4.25;2.40;;;23.10;39.40;;;;;;5058378;28;20045;-68
2021/12/02 09:41:04;;;;;;;6.95;3.67;;;23.30;40.10;;;;;;5058187;28;20065;-68
2021/12/02 09:43:30;;;;;;;8.00;2.58;;;23.30;41.00;;;;;;5058517;28;20037;-69
2021/12/02 09:45:57;;;;;;;8.98;2.72;;;23.30;41.90;;;;;;5058250;28;20097;-68
2021/12/02 09:48:24;;;;;;;5.05;2.03;;;23.20;42.70;;;;;;5058231;28;20041;-68
2021/12/02 09:51:00;;;;;;;6.28;3.40;;;23.20;43.50;;;;;;5058134;28;20045;-68
2021/12/02 09:53:31;;;;;;;7.45;3.75;;;23.20;40.90;;;;;;5058063;28;20060;-67
2021/12/02 09:56:14;;;;;;;5.25;2.65;;;23.20;40.20;;;;;;5058149;28;20100;-68
2021/12/02 09:58:40;;;;;;;2.38;1.45;;;23.20;39.10;;;;;;5058277;28;20048;-67
2021/12/02 10:01:12;;;;;;;32.72;18.50;;;23.20;38.70;;;;;;5057866;28;20049;-68
2021/12/02 10:03:41;;;;;;;113.38;44.70;;;23.20;45.10;;;;;;5058234;28;20037;-68
2021/12/02 10:06:16;;;;;;;13.68;10.07;;;23.50;45.80;;;;;;5058044;28;20041;-69
2021/12/02 10:09:04;;;;;;;9.55;4.53;;;23.70;43.50;;;;;;5057898;28;20060;-69
2021/12/02 10:11:37;;;;;;;9.75;5.15;;;23.70;47.00;;;;;;5057797;28;20053;-69
2021/12/02 10:14:23;;;;;;;12.15;4.10;;;23.70;47.20;;;;;;5057571;28;20041;-69
2021/12/02 10:17:12;;;;;;;5.22;3.50;;;23.60;47.20;;;;;;5057808;28;20049;-69
2021/12/02 10:20:13;;;;;;;5.75;2.60;;;23.80;47.20;;;;;;5057873;28;20051;-69
2021/12/02 10:22:42;;;;;;;4.15;2.80;;;23.80;47.50;;;;;;5057503;28;20079;-69
2021/12/02 10:25:09;;;;;;;4.13;2.95;;;23.80;47.50;;;;;;5054621;28;20038;-70
2021/12/02 10:27:35;;;;;;;4.80;2.58;;;23.70;48.50;;;;;;5057708;28;20045;-69
2021/12/02 10:30:22;;;;;;;4.13;2.90;;;23.70;48.20;;;;;;5057441;28;20104;-69
2021/12/02 10:32:51;;;;;;;6.13;2.83;;;23.70;48.30;;;;;;5057443;28;20049;-69
2021/12/02 10:35:21;;;;;;;3.35;2.63;;;23.70;48.50;;;;;;5057326;28;20052;-69
2021/12/02 10:37:47;;;;;;;1.30;0.98;;;23.70;50.50;;;;;;5057469;28;20041;-68
2021/12/02 10:40:19;;;;;;;7.05;2.67;;;23.70;46.10;;;;;;5057077;28;20061;-68
2021/12/02 10:42:46;;;;;;;8.25;3.45;;;23.70;40.20;;;;;;5056275;28;20045;-69
2021/12/02 10:45:22;;;;;;;3.17;1.92;;;23.80;50.20;;;;;;5057101;28;20068;-68
2021/12/02 10:47:49;;;;;;;6.72;2.90;;;23.90;49.90;;;;;;5057003;28;20041;-69
2021/12/02 10:50:17;;;;;;;5.53;2.60;;;23.90;50.00;;;;;;5057074;28;20065;-68
2021/12/02 10:52:43;;;;;;;4.82;1.35;;;24.10;49.10;;;;;;5056790;28;20048;-69
2021/12/02 10:55:12;;;;;;;4.95;1.70;;;24.10;52.20;;;;;;5056994;28;20049;-69
2021/12/02 10:57:47;;;;;;;2.92;2.00;;;24.20;50.90;;;;;;5042065;28;20071;-70
2021/12/02 11:00:16;;;;;;;7.88;2.88;;;24.20;48.60;;;;;;5037002;28;20030;-68
2021/12/02 11:02:53;;;;;;;3.78;1.88;;;24.10;49.30;;;;;;5036820;28;20030;-68
2021/12/02 11:05:28;;;;;;;8.10;2.15;;;24.20;50.20;;;;;;5036906;28;20076;-68
2021/12/02 11:07:58;;;;;;;1.90;1.60;;;24.10;49.60;;;;;;5036974;28;20049;-67
2021/12/02 11:10:25;;;;;;;3.25;1.85;;;24.10;49.20;;;;;;5036864;28;20050;-70
2021/12/02 11:12:54;;;;;;;3.60;1.88;;;24.00;48.10;;;;;;5036825;28;20053;-69
2021/12/02 11:15:27;;;;;;;4.22;2.17;;;24.10;48.60;;;;;;5036805;28;20073;-69
2021/12/02 11:18:03;;;;;;;3.28;2.15;;;24.20;48.70;;;;;;5036691;28;20045;-69
2021/12/02 11:20:34;;;;;;;2.97;1.33;;;24.00;48.70;;;;;;5036767;28;20049;-69
2021/12/02 11:23:07;;;;;;;1.98;1.48;;;24.00;48.80;;;;;;5036525;28;20045;-69
2021/12/02 11:25:38;;;;;;;3.92;2.10;;;24.00;48.90;;;;;;5036577;28;20061;-69
2021/12/02 11:28:07;;;;;;;1.63;1.40;;;24.00;49.10;;;;;;5036653;28;20133;-69
2021/12/02 11:30:37;;;;;;;6.05;2.13;;;24.00;49.10;;;;;;5036723;28;20042;-69
2021/12/02 11:33:06;;;;;;;2.55;1.77;;;23.90;49.40;;;;;;5036372;28;20072;-69
2021/12/02 11:35:41;;;;;;;6.15;1.80;;;24.00;49.70;;;;;;5036536;28;20046;-68
2021/12/02 11:38:14;;;;;;;1.40;1.30;;;23.90;49.80;;;;;;5036543;28;20033;-69
2021/12/02 11:40:49;;;;;;;3.92;1.98;;;24.00;49.80;;;;;;5050848;28;20056;-69
2021/12/02 11:43:19;;;;;;;2.05;1.45;;;23.90;49.80;;;;;;5056349;28;20052;-68
2021/12/02 11:45:49;;;;;;;3.40;1.58;;;23.90;49.70;;;;;;5056171;28;20059;-70
2021/12/02 11:48:20;;;;;;;1.92;1.52;;;23.80;49.90;;;;;;5056238;28;20041;-69
2021/12/02 11:50:50;;;;;;;3.78;2.15;;;23.90;49.90;;;;;;5056211;28;20072;-69
2021/12/02 11:53:21;;;;;;;2.53;2.05;;;23.90;50.60;;;;;;5055914;28;20117;-69
2021/12/02 11:55:59;;;;;;;3.70;1.63;;;24.00;51.00;;;;;;5055616;28;20064;-69
2021/12/02 11:58:26;;;;;;;8.75;2.05;;;24.00;51.40;;;;;;5055992;28;20049;-70
2021/12/02 12:00:54;;;;;;;2.80;1.83;;;24.00;51.40;;;;;;5055547;28;20045;-68
2021/12/02 12:03:32;;;;;;;4.00;1.90;;;24.00;50.90;;;;;;5055704;28;20041;-68
2021/12/02 12:06:08;;;;;;;2.60;1.30;;;23.90;50.70;;;;;;5055747;28;20097;-68
2021/12/02 12:08:39;;;;;;;2.53;1.42;;;24.00;50.50;;;;;;5056024;28;20135;-71
2021/12/02 12:11:20;;;;;;;2.40;1.90;;;24.00;50.20;;;;;;5056044;28;20049;-70
2021/12/02 12:13:57;;;;;;;5.47;2.17;;;24.00;48.10;;;;;;5055194;28;20049;-71
2021/12/02 12:16:25;;;;;;;3.10;1.55;;;24.00;42.90;;;;;;5054817;28;20049;-70
2021/12/02 12:18:53;;;;;;;3.60;1.45;;;23.80;41.60;;;;;;5055949;28;20049;-70
2021/12/02 12:21:38;;;;;;;1.88;1.50;;;23.90;38.20;;;;;;5055260;28;20052;-71
2021/12/02 12:24:06;;;;;;;3.08;1.55;;;23.80;36.90;;;;;;5055638;28;20042;-71
2021/12/02 12:26:43;;;;;;;3.97;2.22;;;23.80;36.50;;;;;;5055656;28;20041;-70
2021/12/02 12:29:09;;;;;;;3.63;1.42;;;23.80;35.70;;;;;;5054415;28;20052;-70
2021/12/02 12:32:03;;;;;;;6.18;2.65;;;23.80;34.50;;;;;;5054748;28;20238;-68
2021/12/02 12:37:38;;;;;;;2.58;2.20;;;23.80;36.50;;;;;;5054277;28;20042;-68
2021/12/02 12:40:07;;;;;;;4.45;2.53;;;23.80;37.00;;;;;;5053572;28;20053;-68
2021/12/02 12:42:34;;;;;;;3.95;2.65;;;23.70;37.60;;;;;;5053948;28;20060;-68
2021/12/02 12:45:02;;;;;;;3.70;2.45;;;23.70;38.00;;;;;;5054202;28;20060;-68
2021/12/02 12:47:41;;;;;;;5.00;2.30;;;23.70;38.30;;;;;;5054177;28;20052;-68
2021/12/02 12:50:25;;;;;;;5.95;3.00;;;23.80;39.00;;;;;;5054086;28;20064;-68
2021/12/02 12:53:07;;;;;;;3.70;2.35;;;23.80;39.40;;;;;;5054237;28;20063;-68
2021/12/02 12:55:59;;;;;;;9.75;3.10;;;23.70;39.70;;;;;;5054271;28;20033;-68
2021/12/02 12:58:30;;;;;;;5.43;2.80;;;23.80;40.20;;;;;;5041275;28;20045;-68
2021/12/02 13:01:02;;;;;;;3.80;2.65;;;23.70;40.50;;;;;;5035684;28;20065;-69
2021/12/02 13:03:44;;;;;;;5.47;3.28;;;23.70;40.80;;;;;;5035586;28;20068;-68
2021/12/02 13:06:26;;;;;;;4.63;2.30;;;23.80;41.20;;;;;;5037813;28;20057;-68
2021/12/02 13:09:03;;;;;;;6.20;2.53;;;23.70;41.50;;;;;;5038381;28;20030;-68
2021/12/02 13:11:34;;;;;;;5.40;3.13;;;23.70;41.80;;;;;;5038891;28;20050;-68
2021/12/02 13:14:03;;;;;;;5.70;3.17;;;23.70;41.60;;;;;;5039179;28;20050;-69
2021/12/02 13:16:35;;;;;;;6.45;2.80;;;23.70;41.70;;;;;;5039312;28;20053;-69
2021/12/02 13:19:11;;;;;;;6.32;3.92;;;23.70;42.00;;;;;;5039277;28;20041;-68
2021/12/02 13:21:38;;;;;;;7.75;2.97;;;23.70;41.60;;;;;;5039193;28;20053;-68